Time;durP1;ratioP1;P1;durP2;ratioP2;P2;SDS_P1;SDS_P2;PMS_P1;PMS_P2;Temp;Humidity;BMP_temperature;BMP_pressure;BME280_temperature;BME280_humidity;BME280_pressure;Samples;Min_cycle;Max_cycle;Signal;HPM_P1;HPM_P2
2023/10/21 00:01:30;;;;;;;;;;;18.60;99.90;;;;;;4966281;28;19913;-72
2023/10/21 00:03:56;;;;;;;;;;;18.60;99.90;;;;;;4965815;28;19914;-72
2023/10/21 00:06:22;;;;;;;;;;;18.60;99.90;;;;;;4966422;28;19918;-72
2023/10/21 00:08:48;;;;;;;;;;;18.60;99.90;;;;;;4962632;28;20428;-72
2023/10/21 00:11:13;;;;;;;;;;;18.60;99.90;;;;;;4959159;28;20008;-72
2023/10/21 00:13:39;;;;;;;;;;;18.60;99.90;;;;;;4961505;28;19917;-72
2023/10/21 00:16:04;;;;;;;;;;;18.60;99.90;;;;;;4969270;28;19960;-72
2023/10/21 00:18:30;;;;;;;;;;;18.60;99.90;;;;;;4965927;28;19914;-72
2023/10/21 00:20:56;;;;;;;;;;;18.60;99.90;;;;;;4966630;28;20428;-72
2023/10/21 00:23:21;;;;;;;;;;;18.70;99.90;;;;;;4963533;28;21264;-72
2023/10/21 00:25:47;;;;;;;;;;;18.80;99.90;;;;;;4966545;28;19973;-72
2023/10/21 00:28:13;;;;;;;;;;;18.90;99.90;;;;;;4960861;28;19918;-72
2023/10/21 00:30:38;;;;;;;;;;;18.90;99.90;;;;;;4947936;28;19920;-72
2023/10/21 00:33:04;;;;;;;;;;;19.10;99.90;;;;;;4974629;28;19921;-72
2023/10/21 00:35:31;;;;;;;;;;;19.10;99.90;;;;;;4968519;28;20688;-72
2023/10/21 00:37:57;;;;;;;;;;;19.10;99.90;;;;;;4966356;28;20584;-72
2023/10/21 00:40:22;;;;;;;;;;;19.00;99.90;;;;;;4963770;28;19918;-72
2023/10/21 00:42:48;;;;;;;;;;;18.90;99.90;;;;;;4963284;28;19909;-73
2023/10/21 00:45:14;;;;;;;;;;;18.90;99.90;;;;;;4961033;28;20336;-72
2023/10/21 00:47:40;;;;;;;;;;;18.90;99.90;;;;;;4968933;28;19918;-72
2023/10/21 00:50:05;;;;;;;;;;;18.90;99.90;;;;;;4968584;28;19926;-71
2023/10/21 00:52:38;;;;;;;;;;;18.80;99.90;;;;;;4967005;28;20005;-72
2023/10/21 00:55:04;;;;;;;;;;;18.60;99.90;;;;;;4967719;28;20285;-72
2023/10/21 00:57:29;;;;;;;;;;;18.50;99.90;;;;;;4962975;28;19914;-72
2023/10/21 00:59:55;;;;;;;;;;;18.40;99.90;;;;;;4964872;28;19910;-72
2023/10/21 01:02:21;;;;;;;;;;;18.30;99.90;;;;;;4966551;28;19914;-72
2023/10/21 01:04:46;;;;;;;;;;;18.20;99.90;;;;;;4970660;28;19914;-72
2023/10/21 01:07:16;;;;;;;;;;;18.10;99.90;;;;;;4965501;28;19921;-72
2023/10/21 01:09:42;;;;;;;;;;;18.00;99.90;;;;;;4962791;28;20015;-71
2023/10/21 01:12:08;;;;;;;;;;;18.00;99.90;;;;;;4966368;28;19910;-71
2023/10/21 01:14:33;;;;;;;;;;;18.00;99.90;;;;;;4967057;28;19925;-71
2023/10/21 01:16:59;;;;;;;;;;;18.00;99.90;;;;;;4967534;28;20377;-72
2023/10/21 01:19:25;;;;;;;;;;;18.00;99.90;;;;;;4968510;28;20326;-71
2023/10/21 01:21:51;;;;;;;;;;;17.90;99.90;;;;;;4960860;28;20519;-73
2023/10/21 01:24:17;;;;;;;;;;;17.80;99.90;;;;;;4964746;28;20053;-72
2023/10/21 01:26:42;;;;;;;;;;;17.80;99.90;;;;;;4963983;28;20471;-71
2023/10/21 01:29:09;;;;;;;;;;;17.80;99.90;;;;;;4968900;28;19921;-72
2023/10/21 01:31:35;;;;;;;;;;;17.70;99.90;;;;;;4965183;28;19921;-73
2023/10/21 01:34:01;;;;;;;;;;;17.80;99.90;;;;;;4969754;28;19914;-71
2023/10/21 01:36:27;;;;;;;;;;;17.80;99.90;;;;;;4960854;28;19914;-71
2023/10/21 01:38:53;;;;;;;;;;;17.80;99.90;;;;;;4966192;28;20267;-71
2023/10/21 01:41:18;;;;;;;;;;;17.80;99.90;;;;;;4960439;28;20293;-71
2023/10/21 01:43:44;;;;;;;;;;;17.70;99.90;;;;;;4964832;28;19918;-71
2023/10/21 01:46:10;;;;;;;;;;;17.60;99.90;;;;;;4964856;28;19941;-72
2023/10/21 01:48:36;;;;;;;;;;;17.60;99.90;;;;;;4967933;28;20281;-71
2023/10/21 01:51:04;;;;;;;;;;;17.60;99.90;;;;;;4962115;28;20353;-71
2023/10/21 01:53:31;;;;;;;;;;;17.60;99.90;;;;;;4962436;28;19924;-72
2023/10/21 01:56:00;;;;;;;;;;;17.50;99.90;;;;;;4960382;28;19914;-71
2023/10/21 01:58:25;;;;;;;;;;;17.50;99.90;;;;;;4964779;28;19910;-71
2023/10/21 02:00:51;;;;;;;;;;;17.40;99.90;;;;;;4963596;28;19918;-71
2023/10/21 02:03:16;;;;;;;;;;;17.30;99.90;;;;;;4972991;28;19914;-71
2023/10/21 02:05:42;;;;;;;;;;;17.30;99.90;;;;;;4967809;28;20356;-70
2023/10/21 02:08:07;;;;;;;;;;;17.20;99.90;;;;;;4969039;28;19914;-72
2023/10/21 02:10:35;;;;;;;;;;;17.10;99.90;;;;;;4962335;28;19916;-71
2023/10/21 02:13:00;;;;;;;;;;;17.00;99.90;;;;;;4964540;28;19998;-71
2023/10/21 02:15:26;;;;;;;;;;;16.90;99.90;;;;;;4960100;28;19981;-71
2023/10/21 02:17:51;;;;;;;;;;;16.90;99.90;;;;;;4967662;28;21357;-71
2023/10/21 02:20:17;;;;;;;;;;;16.90;99.90;;;;;;4960644;28;19953;-71
2023/10/21 02:22:43;;;;;;;;;;;16.80;99.90;;;;;;4963730;28;20009;-71
2023/10/21 02:25:12;;;;;;;;;;;16.80;99.90;;;;;;4964410;28;19910;-71
2023/10/21 02:27:39;;;;;;;;;;;16.70;99.90;;;;;;4963289;28;19910;-71
2023/10/21 02:30:06;;;;;;;;;;;16.60;99.90;;;;;;4964294;28;19917;-71
2023/10/21 02:32:31;;;;;;;;;;;16.50;99.90;;;;;;4965217;28;19914;-70
2023/10/21 02:34:57;;;;;;;;;;;16.40;99.90;;;;;;4968936;28;20029;-71
2023/10/21 02:37:23;;;;;;;;;;;16.30;99.90;;;;;;4958321;28;20613;-71
2023/10/21 02:39:48;;;;;;;;;;;16.30;99.90;;;;;;4967110;28;19910;-71
2023/10/21 02:42:14;;;;;;;;;;;16.30;99.90;;;;;;4957850;28;20008;-70
2023/10/21 02:44:39;;;;;;;;;;;16.20;99.90;;;;;;4964644;28;19914;-71
2023/10/21 02:47:05;;;;;;;;;;;16.10;99.90;;;;;;4963906;28;19910;-72
2023/10/21 02:49:30;;;;;;;;;;;16.10;99.90;;;;;;4960437;28;20355;-71
2023/10/21 02:51:56;;;;;;;;;;;16.00;99.90;;;;;;4963819;28;19931;-71
2023/10/21 02:54:21;;;;;;;;;;;16.00;99.90;;;;;;4956207;28;20522;-71
2023/10/21 02:56:47;;;;;;;;;;;16.00;99.90;;;;;;4964136;28;19916;-71
2023/10/21 02:59:13;;;;;;;;;;;16.00;99.90;;;;;;4963052;28;19922;-71
2023/10/21 03:01:38;;;;;;;;;;;16.10;99.90;;;;;;4965010;28;19909;-71
2023/10/21 03:04:04;;;;;;;;;;;16.10;99.90;;;;;;4967859;28;20441;-71
2023/10/21 03:06:29;;;;;;;;;;;16.10;99.90;;;;;;4958267;28;19914;-71
2023/10/21 03:08:55;;;;;;;;;;;16.20;99.90;;;;;;4964203;28;20428;-71
2023/10/21 03:11:20;;;;;;;;;;;16.20;99.90;;;;;;4964228;28;19981;-71
2023/10/21 03:13:46;;;;;;;;;;;16.30;99.90;;;;;;4960237;28;20215;-71
2023/10/21 03:16:16;;;;;;;;;;;16.40;99.90;;;;;;4963067;28;20353;-71
2023/10/21 03:18:42;;;;;;;;;;;16.40;99.90;;;;;;4965235;28;20219;-71
2023/10/21 03:21:08;;;;;;;;;;;16.50;99.90;;;;;;4962311;28;19925;-71
2023/10/21 03:23:34;;;;;;;;;;;16.50;99.90;;;;;;4955644;28;20353;-71
2023/10/21 03:26:01;;;;;;;;;;;16.50;99.90;;;;;;4964494;28;19914;-71
2023/10/21 03:28:27;;;;;;;;;;;16.60;99.90;;;;;;4959894;28;19920;-70
2023/10/21 03:30:59;;;;;;;;;;;16.60;99.90;;;;;;4959385;28;19918;-71
2023/10/21 03:33:26;;;;;;;;;;;16.70;99.90;;;;;;4969504;28;19920;-70
2023/10/21 03:35:57;;;;;;;;;;;16.80;99.90;;;;;;4963315;28;20062;-71
2023/10/21 03:38:22;;;;;;;;;;;16.80;99.90;;;;;;4961491;28;20013;-71
2023/10/21 03:41:07;;;;;;;;;;;16.80;99.90;;;;;;4959511;28;20037;-71
2023/10/21 03:43:33;;;;;;;;;;;16.80;99.90;;;;;;4961358;28;19922;-71
2023/10/21 03:46:01;;;;;;;;;;;16.70;99.90;;;;;;4964224;28;20536;-71
2023/10/21 03:48:27;;;;;;;;;;;16.70;99.90;;;;;;4963279;28;19914;-70
2023/10/21 03:50:52;;;;;;;;;;;16.70;99.90;;;;;;4961014;28;20293;-71
2023/10/21 03:53:18;;;;;;;;;;;16.70;99.90;;;;;;4963500;28;19916;-72
2023/10/21 03:55:44;;;;;;;;;;;16.70;99.90;;;;;;4961873;28;19922;-71
2023/10/21 03:58:12;;;;;;;;;;;16.60;99.90;;;;;;4958676;28;19914;-71
2023/10/21 04:00:38;;;;;;;;;;;16.60;99.90;;;;;;4964371;28;19914;-71
2023/10/21 04:03:03;;;;;;;;;;;16.60;99.90;;;;;;4970026;28;19918;-71
2023/10/21 04:05:30;;;;;;;;;;;16.70;99.90;;;;;;4961367;28;19921;-71
2023/10/21 04:07:56;;;;;;;;;;;16.70;99.90;;;;;;4962141;28;20006;-71
2023/10/21 04:10:22;;;;;;;;;;;16.70;99.90;;;;;;4961238;28;20021;-71
2023/10/21 04:12:48;;;;;;;;;;;16.70;99.90;;;;;;4961229;28;20429;-71
2023/10/21 04:15:13;;;;;;;;;;;16.70;99.90;;;;;;4963497;28;20354;-71
2023/10/21 04:17:39;;;;;;;;;;;16.70;99.90;;;;;;4961023;28;19921;-71
2023/10/21 04:20:05;;;;;;;;;;;16.70;99.90;;;;;;4963769;28;19941;-71
2023/10/21 04:22:31;;;;;;;;;;;16.60;99.90;;;;;;4959305;28;20539;-70
2023/10/21 04:24:57;;;;;;;;;;;16.50;99.90;;;;;;4965473;28;19910;-70
2023/10/21 04:27:22;;;;;;;;;;;16.40;99.90;;;;;;4960397;28;19918;-71
2023/10/21 04:29:48;;;;;;;;;;;16.40;99.90;;;;;;4962624;28;19969;-71
2023/10/21 04:32:14;;;;;;;;;;;16.30;99.90;;;;;;4963018;28;20406;-71
2023/10/21 04:34:39;;;;;;;;;;;16.30;99.90;;;;;;4969891;28;19921;-71
2023/10/21 04:37:05;;;;;;;;;;;16.40;99.90;;;;;;4957350;28;19965;-71
2023/10/21 04:39:32;;;;;;;;;;;16.30;99.90;;;;;;4959102;28;20002;-71
2023/10/21 04:41:58;;;;;;;;;;;16.20;99.90;;;;;;4955571;28;20440;-70
2023/10/21 04:44:24;;;;;;;;;;;16.20;99.90;;;;;;4962269;28;19921;-71
2023/10/21 04:46:49;;;;;;;;;;;16.20;99.90;;;;;;4961573;28;20480;-72
2023/10/21 04:49:16;;;;;;;;;;;16.10;99.90;;;;;;4958983;28;20013;-72
2023/10/21 04:51:41;;;;;;;;;;;16.10;99.90;;;;;;4966750;28;20009;-71
2023/10/21 04:54:07;;;;;;;;;;;16.00;99.90;;;;;;4956229;28;20364;-71
2023/10/21 04:56:33;;;;;;;;;;;16.00;99.90;;;;;;4960575;28;19926;-71
2023/10/21 04:58:59;;;;;;;;;;;15.90;99.90;;;;;;4961941;28;19953;-71
2023/10/21 05:01:24;;;;;;;;;;;15.80;99.90;;;;;;4966251;28;20052;-70
2023/10/21 05:03:50;;;;;;;;;;;15.70;99.90;;;;;;4968087;28;20001;-70
2023/10/21 05:06:15;;;;;;;;;;;15.70;99.90;;;;;;4968563;28;20557;-71
2023/10/21 05:08:41;;;;;;;;;;;15.70;99.90;;;;;;4966639;28;20340;-71
2023/10/21 05:11:06;;;;;;;;;;;15.60;99.90;;;;;;4968532;28;20325;-70
2023/10/21 05:13:32;;;;;;;;;;;15.50;99.90;;;;;;4963243;28;19968;-69
2023/10/21 05:15:58;;;;;;;;;;;15.50;99.90;;;;;;4969332;28;19937;-70
2023/10/21 05:18:23;;;;;;;;;;;15.50;99.90;;;;;;4967943;28;19910;-70
2023/10/21 05:20:49;;;;;;;;;;;15.40;99.90;;;;;;4964687;28;20005;-71
2023/10/21 05:23:15;;;;;;;;;;;15.40;99.90;;;;;;4962050;28;19913;-70
2023/10/21 05:25:40;;;;;;;;;;;15.30;99.90;;;;;;4965963;28;19996;-71
2023/10/21 05:28:06;;;;;;;;;;;15.30;99.90;;;;;;4966852;28;19914;-70
2023/10/21 05:30:32;;;;;;;;;;;15.30;99.90;;;;;;4961249;28;19911;-70
2023/10/21 05:32:57;;;;;;;;;;;15.30;99.90;;;;;;4970362;28;19917;-70
2023/10/21 05:35:23;;;;;;;;;;;15.30;99.90;;;;;;4964108;28;19918;-69
2023/10/21 05:37:48;;;;;;;;;;;15.20;99.90;;;;;;4960725;28;19909;-70
2023/10/21 05:40:14;;;;;;;;;;;15.20;99.90;;;;;;4969254;28;20381;-70
2023/10/21 05:42:39;;;;;;;;;;;15.10;99.90;;;;;;4959873;28;20618;-70
2023/10/21 05:45:07;;;;;;;;;;;15.10;99.90;;;;;;4965702;28;20274;-70
2023/10/21 05:47:33;;;;;;;;;;;15.10;99.90;;;;;;4965387;28;20417;-71
2023/10/21 05:49:59;;;;;;;;;;;15.10;99.90;;;;;;4961839;28;19949;-70
2023/10/21 05:52:25;;;;;;;;;;;15.10;99.90;;;;;;4964376;28;19968;-65
2023/10/21 05:54:50;;;;;;;;;;;15.20;99.90;;;;;;4966093;28;20369;-71
2023/10/21 05:57:16;;;;;;;;;;;15.20;99.90;;;;;;4966288;28;19968;-72
2023/10/21 05:59:41;;;;;;;;;;;15.20;99.90;;;;;;4965408;28;19961;-72
2023/10/21 06:02:07;;;;;;;;;;;15.20;99.90;;;;;;4965593;28;19910;-71
2023/10/21 06:04:33;;;;;;;;;;;15.20;99.90;;;;;;4968280;28;20481;-70
2023/10/21 06:06:58;;;;;;;;;;;15.20;99.90;;;;;;4963280;28;20009;-70
2023/10/21 06:09:25;;;;;;;;;;;15.20;99.90;;;;;;4965277;28;20377;-70
2023/10/21 06:11:51;;;;;;;;;;;15.20;99.90;;;;;;4962972;28;19913;-71
2023/10/21 06:14:21;;;;;;;;;;;15.30;99.90;;;;;;4965588;28;19910;-71
2023/10/21 06:16:47;;;;;;;;;;;15.30;99.90;;;;;;4965748;28;19910;-71
2023/10/21 06:19:12;;;;;;;;;;;15.30;99.90;;;;;;4962532;28;20512;-71
2023/10/21 06:21:38;;;;;;;;;;;15.40;99.90;;;;;;4964789;28;20005;-72
2023/10/21 06:24:04;;;;;;;;;;;15.40;99.90;;;;;;4962794;28;20006;-71
2023/10/21 06:26:33;;;;;;;;;;;15.50;99.90;;;;;;4960104;28;20441;-71
2023/10/21 06:28:59;;;;;;;;;;;15.60;99.90;;;;;;4965207;28;19914;-70
2023/10/21 06:31:25;;;;;;;;;;;15.80;99.90;;;;;;4963340;28;19910;-71
2023/10/21 06:33:52;;;;;;;;;;;16.00;99.90;;;;;;4969707;28;20468;-72
2023/10/21 06:36:17;;;;;;;;;;;16.10;99.90;;;;;;4967284;28;19925;-73
2023/10/21 06:38:43;;;;;;;;;;;16.10;99.90;;;;;;4958934;28;20487;-72
2023/10/21 06:41:10;;;;;;;;;;;16.20;99.90;;;;;;4965160;28;19906;-72
2023/10/21 06:43:36;;;;;;;;;;;16.20;99.90;;;;;;4964001;28;19910;-71
2023/10/21 06:46:02;;;;;;;;;;;16.20;99.90;;;;;;4962737;28;19928;-71
2023/10/21 06:48:28;;;;;;;;;;;16.40;99.90;;;;;;4963451;28;19942;-71
2023/10/21 06:50:54;;;;;;;;;;;16.40;99.90;;;;;;4963235;28;19918;-71
2023/10/21 06:53:19;;;;;;;;;;;16.50;99.90;;;;;;4964787;28;19921;-72
2023/10/21 06:55:45;;;;;;;;;;;16.60;99.90;;;;;;4958652;28;19922;-71
2023/10/21 06:58:11;;;;;;;;;;;16.60;99.90;;;;;;4961197;28;19937;-71
2023/10/21 07:00:37;;;;;;;;;;;16.70;99.90;;;;;;4964985;28;19906;-71
2023/10/21 07:03:02;;;;;;;;;;;16.80;99.90;;;;;;4967376;28;19914;-72
2023/10/21 07:05:29;;;;;;;;;;;16.90;99.90;;;;;;4965527;28;20076;-71
2023/10/21 07:07:54;;;;;;;;;;;17.00;99.90;;;;;;4963713;28;19918;-71
2023/10/21 07:10:20;;;;;;;;;;;17.30;99.90;;;;;;4958524;28;19918;-72
2023/10/21 07:12:45;;;;;;;;;;;17.80;99.90;;;;;;4963226;28;19913;-71
2023/10/21 07:15:11;;;;;;;;;;;18.70;99.90;;;;;;4967163;28;20646;-71
2023/10/21 07:17:37;;;;;;;;;;;19.60;99.90;;;;;;4957457;28;19917;-71
2023/10/21 07:20:04;;;;;;;;;;;20.40;99.90;;;;;;4965278;28;20338;-71
2023/10/21 07:22:30;;;;;;;;;;;21.50;99.90;;;;;;4963289;28;20013;-73
2023/10/21 07:24:56;;;;;;;;;;;22.70;99.90;;;;;;4961965;28;20001;-72
2023/10/21 07:27:22;;;;;;;;;;;23.80;99.90;;;;;;4958760;28;19984;-72
2023/10/21 07:29:47;;;;;;;;;;;24.70;99.90;;;;;;4947280;28;20016;-72
2023/10/21 07:32:13;;;;;;;;;;;25.60;99.00;;;;;;4972577;28;19922;-73
2023/10/21 07:34:38;;;;;;;;;;;25.80;98.00;;;;;;4964255;28;19921;-72
2023/10/21 07:37:04;;;;;;;;;;;26.00;96.90;;;;;;4963813;28;19910;-72
2023/10/21 07:39:29;;;;;;;;;;;26.10;95.90;;;;;;4961700;28;20400;-71
2023/10/21 07:41:56;;;;;;;;;;;25.90;95.80;;;;;;4961660;28;20005;-72
2023/10/21 07:44:21;;;;;;;;;;;26.30;94.80;;;;;;4964472;28;20009;-72
2023/10/21 07:46:47;;;;;;;;;;;27.00;94.10;;;;;;4939775;28;20005;-72
2023/10/21 07:49:13;;;;;;;;;;;27.30;93.10;;;;;;4966250;28;20789;-72
2023/10/21 07:51:40;;;;;;;;;;;28.00;92.50;;;;;;4960910;28;20416;-72
2023/10/21 07:54:06;;;;;;;;;;;29.40;90.70;;;;;;4962136;28;19929;-72
2023/10/21 07:56:32;;;;;;;;;;;29.10;89.10;;;;;;4963560;28;19918;-71
2023/10/21 07:58:58;;;;;;;;;;;28.10;88.80;;;;;;4962291;28;19910;-71
2023/10/21 08:01:24;;;;;;;;;;;27.40;90.50;;;;;;4968344;28;19956;-71
2023/10/21 08:03:49;;;;;;;;;;;27.10;90.70;;;;;;4961554;28;20520;-72
2023/10/21 08:06:15;;;;;;;;;;;26.70;90.50;;;;;;4966392;28;20321;-72
2023/10/21 08:08:41;;;;;;;;;;;26.60;89.20;;;;;;4963265;28;19910;-72
2023/10/21 08:11:09;;;;;;;;;;;26.20;90.20;;;;;;4962914;28;19968;-72
2023/10/21 08:13:34;;;;;;;;;;;26.70;90.00;;;;;;4962093;28;19921;-72
2023/10/21 08:16:00;;;;;;;;;;;27.70;90.00;;;;;;4965238;28;19914;-72
2023/10/21 08:18:25;;;;;;;;;;;29.10;87.70;;;;;;4965747;28;19972;-71
2023/10/21 08:20:51;;;;;;;;;;;29.30;85.40;;;;;;4962096;28;20060;-72
2023/10/21 08:23:16;;;;;;;;;;;29.40;84.70;;;;;;4959353;28;19914;-72
2023/10/21 08:25:43;;;;;;;;;;;30.50;83.30;;;;;;4959011;28;20316;-72
2023/10/21 08:28:10;;;;;;;;;;;30.40;81.20;;;;;;4962963;28;19914;-72
2023/10/21 08:30:38;;;;;;;;;;;30.50;80.60;;;;;;4962750;28;19977;-71
2023/10/21 08:33:05;;;;;;;;;;;31.00;80.30;;;;;;4965824;28;19971;-72
2023/10/21 08:35:34;;;;;;;;;;;30.80;78.90;;;;;;4963884;28;20394;-70
2023/10/21 08:38:01;;;;;;;;;;;30.60;79.20;;;;;;4963818;28;19921;-71
2023/10/21 08:40:27;;;;;;;;;;;29.30;79.00;;;;;;4969155;28;19910;-71
2023/10/21 08:42:53;;;;;;;;;;;28.50;80.70;;;;;;4967490;28;19918;-72
2023/10/21 08:45:19;;;;;;;;;;;27.60;83.50;;;;;;4964840;28;19922;-71
2023/10/21 08:47:45;;;;;;;;;;;27.20;83.90;;;;;;4966496;28;19910;-73
2023/10/21 08:50:13;;;;;;;;;;;26.10;85.70;;;;;;4966728;28;20386;-71
2023/10/21 08:52:40;;;;;;;;;;;25.60;87.50;;;;;;4967789;28;19914;-71
2023/10/21 08:55:06;;;;;;;;;;;25.60;87.80;;;;;;4960459;28;20017;-71
2023/10/21 08:57:32;;;;;;;;;;;25.80;88.50;;;;;;4964991;28;20007;-71
2023/10/21 08:59:58;;;;;;;;;;;25.80;88.90;;;;;;4966375;28;20492;-71
2023/10/21 09:02:25;;;;;;;;;;;26.10;88.90;;;;;;4967465;28;19993;-71
2023/10/21 09:04:50;;;;;;;;;;;26.00;89.30;;;;;;4969690;28;19917;-72
2023/10/21 09:07:16;;;;;;;;;;;25.60;89.70;;;;;;4966019;28;19910;-72
2023/10/21 09:09:41;;;;;;;;;;;25.00;90.20;;;;;;4967331;28;19921;-71
2023/10/21 09:12:13;;;;;;;;;;;25.30;89.50;;;;;;4964787;28;19949;-71
2023/10/21 09:14:52;;;;;;;;;;;25.00;90.10;;;;;;4965266;28;19968;-71
2023/10/21 09:17:18;;;;;;;;;;;24.90;90.60;;;;;;4963796;28;20313;-71
2023/10/21 09:19:43;;;;;;;;;;;24.90;90.90;;;;;;4967265;28;19923;-70
2023/10/21 09:22:27;;;;;;;;;;;25.30;91.00;;;;;;4961500;28;19918;-70
2023/10/21 09:25:15;;;;;;;;;;;26.80;90.00;;;;;;4965698;28;19925;-72
2023/10/21 09:27:42;;;;;;;;;;;30.00;85.30;;;;;;4963448;28;20369;-71
2023/10/21 09:30:12;;;;;;;;;;;33.10;78.20;;;;;;4962862;28;19918;-72
2023/10/21 09:32:38;;;;;;;;;;;35.70;73.60;;;;;;4968870;28;19910;-72
2023/10/21 09:35:27;;;;;;;;;;;37.60;68.40;;;;;;4962620;28;19926;-72
2023/10/21 09:37:53;;;;;;;;;;;39.60;63.50;;;;;;4959928;28;19978;-71
2023/10/21 09:40:19;;;;;;;;;;;39.90;59.60;;;;;;4962464;28;20361;-70
2023/10/21 09:42:47;;;;;;;;;;;39.50;59.20;;;;;;4958353;28;19918;-71
2023/10/21 09:45:15;;;;;;;;;;;40.30;58.00;;;;;;4962961;28;21584;-71
2023/10/21 09:47:41;;;;;;;;;;;40.00;57.00;;;;;;4967096;28;19918;-70
2023/10/21 09:50:11;;;;;;;;;;;38.90;56.60;;;;;;4962504;28;19914;-67
2023/10/21 09:52:39;;;;;;;;;;;39.10;57.40;;;;;;4963404;28;20388;-67
2023/10/21 09:55:07;;;;;;;;;;;38.60;56.60;;;;;;4966641;28;20737;-67
2023/10/21 09:57:35;;;;;;;;;;;36.70;57.30;;;;;;4960433;28;19918;-67
2023/10/21 10:00:02;;;;;;;;;;;36.90;57.80;;;;;;4960651;28;19926;-68
2023/10/21 10:02:28;;;;;;;;;;;38.40;56.50;;;;;;4967227;28;19914;-68
2023/10/21 10:04:54;;;;;;;;;;;38.30;56.00;;;;;;4966964;28;19964;-68
2023/10/21 10:07:20;;;;;;;;;;;38.80;56.00;;;;;;4966147;28;19996;-68
2023/10/21 10:09:47;;;;;;;;;;;39.60;54.80;;;;;;4964840;28;19941;-67
2023/10/21 10:12:12;;;;;;;;;;;40.40;54.50;;;;;;4959827;28;19921;-68
2023/10/21 10:14:38;;;;;;;;;;;41.20;53.00;;;;;;4965492;28;19914;-68
2023/10/21 10:17:06;;;;;;;;;;;40.30;53.40;;;;;;4965615;28;19921;-68
2023/10/21 10:19:37;;;;;;;;;;;40.30;53.40;;;;;;4942150;28;19914;-68
2023/10/21 10:22:21;;;;;;;;;;;40.60;53.30;;;;;;4961243;28;19914;-68
2023/10/21 10:25:10;;;;;;;;;;;39.70;52.80;;;;;;4966849;28;19952;-68
2023/10/21 10:27:36;;;;;;;;;;;35.80;55.50;;;;;;4963320;28;19916;-67
2023/10/21 10:30:07;;;;;;;;;;;35.60;57.50;;;;;;4963336;28;19997;-67
2023/10/21 10:32:42;;;;;;;;;;;37.20;56.40;;;;;;4962507;28;19950;-68
2023/10/21 10:35:08;;;;;;;;;;;38.10;55.30;;;;;;4967478;28;19918;-67
2023/10/21 10:37:34;;;;;;;;;;;38.20;54.80;;;;;;4958722;28;19925;-68
2023/10/21 10:40:05;;;;;;;;;;;38.70;54.30;;;;;;4966276;28;19937;-69
2023/10/21 10:42:34;;;;;;;;;;;37.70;53.60;;;;;;4961524;28;19956;-69
2023/10/21 10:45:00;;;;;;;;;;;37.10;55.10;;;;;;4960395;28;19914;-67
2023/10/21 10:47:28;;;;;;;;;;;36.20;55.70;;;;;;4960453;28;19917;-68
2023/10/21 10:49:57;;;;;;;;;;;33.70;57.30;;;;;;4959390;28;19980;-68
2023/10/21 10:52:33;;;;;;;;;;;31.10;60.90;;;;;;4963823;28;20647;-68
2023/10/21 10:54:59;;;;;;;;;;;30.00;61.70;;;;;;4961445;28;19914;-70
2023/10/21 10:57:24;;;;;;;;;;;29.00;63.30;;;;;;4960553;28;19911;-70
2023/10/21 10:59:50;;;;;;;;;;;28.60;65.40;;;;;;4959041;28;20854;-71
2023/10/21 11:02:17;;;;;;;;;;;28.20;65.30;;;;;;4967368;28;19965;-70
2023/10/21 11:04:44;;;;;;;;;;;28.10;66.40;;;;;;4964921;28;20325;-70
2023/10/21 11:07:12;;;;;;;;;;;27.40;67.70;;;;;;4966037;28;19918;-74
2023/10/21 11:09:38;;;;;;;;;;;26.90;68.90;;;;;;4961239;28;19914;-69
2023/10/21 11:12:04;;;;;;;;;;;26.50;68.50;;;;;;4964057;28;19918;-67
2023/10/21 11:14:29;;;;;;;;;;;25.60;70.10;;;;;;4943319;28;19914;-66
2023/10/21 11:16:55;;;;;;;;;;;25.70;70.90;;;;;;4963885;28;19910;-66
2023/10/21 11:19:22;;;;;;;;;;;26.00;69.80;;;;;;4966218;28;19953;-65
2023/10/21 11:21:48;;;;;;;;;;;25.30;70.80;;;;;;4963678;28;20281;-65
2023/10/21 11:24:14;;;;;;;;;;;24.70;73.20;;;;;;4961211;28;19925;-62
2023/10/21 11:26:40;;;;;;;;;;;24.50;73.80;;;;;;4956394;28;19914;-64
2023/10/21 11:29:06;;;;;;;;;;;24.50;74.00;;;;;;4963143;28;20353;-64
2023/10/21 11:31:33;;;;;;;;;;;24.90;74.80;;;;;;4962382;28;19993;-67
2023/10/21 11:34:11;;;;;;;;;;;24.90;73.30;;;;;;4968871;28;20243;-67
2023/10/21 11:36:37;;;;;;;;;;;24.90;73.10;;;;;;4962956;28;19921;-67
2023/10/21 11:39:13;;;;;;;;;;;25.00;73.20;;;;;;4959179;28;20307;-68
2023/10/21 11:41:45;;;;;;;;;;;25.30;73.40;;;;;;4962975;28;20469;-68
2023/10/21 11:44:12;;;;;;;;;;;25.50;73.10;;;;;;4964343;28;19910;-67
2023/10/21 11:46:38;;;;;;;;;;;25.70;73.00;;;;;;4963017;28;19918;-67
2023/10/21 11:49:04;;;;;;;;;;;26.10;72.80;;;;;;4965645;28;20009;-67
2023/10/21 11:51:30;;;;;;;;;;;26.20;72.20;;;;;;4962853;28;20418;-68
2023/10/21 11:53:56;;;;;;;;;;;25.60;72.70;;;;;;4965643;28;20353;-67
2023/10/21 12:03:06;;;;;;;;;;;24.60;75.00;;;;;;4967995;28;19914;-67
2023/10/21 12:08:00;;;;;;;;;;;24.40;76.50;;;;;;4964460;28;20361;-66
2023/10/21 12:26:40;;;;;;;;;;;24.00;82.60;;;;;;4966981;28;19968;-66
2023/10/21 12:32:36;;;;;;;;;;;23.50;86.70;;;;;;4970050;28;20007;-67
2023/10/21 12:39:46;;;;;;;;;;;23.40;87.30;;;;;;4968032;28;19910;-67
2023/10/21 12:42:28;;;;;;;;;;;23.20;89.50;;;;;;4965593;28;20429;-67
2023/10/21 12:44:55;;;;;;;;;;;23.30;89.80;;;;;;4965328;28;19922;-67
2023/10/21 12:47:21;;;;;;;;;;;23.40;90.10;;;;;;4962967;28;20739;-67
2023/10/21 12:49:50;;;;;;;;;;;23.50;90.50;;;;;;4968038;28;19913;-67
2023/10/21 12:52:16;;;;;;;;;;;23.40;90.50;;;;;;4963931;28;19992;-66
2023/10/21 12:54:43;;;;;;;;;;;23.30;90.20;;;;;;4960343;28;19921;-66
2023/10/21 12:57:09;;;;;;;;;;;23.00;90.80;;;;;;4965470;28;20626;-67
2023/10/21 12:59:35;;;;;;;;;;;23.10;91.10;;;;;;4961564;28;19921;-68
2023/10/21 13:02:01;;;;;;;;;;;22.90;91.40;;;;;;4969653;28;19914;-68
2023/10/21 13:04:26;;;;;;;;;;;23.00;90.90;;;;;;4969107;28;20604;-67
2023/10/21 13:06:53;;;;;;;;;;;23.00;91.70;;;;;;4961402;28;19933;-65
2023/10/21 13:09:24;;;;;;;;;;;23.00;92.70;;;;;;4966207;28;19967;-67
2023/10/21 13:11:53;;;;;;;;;;;23.00;93.10;;;;;;4961215;28;19921;-67
2023/10/21 13:14:19;;;;;;;;;;;23.10;93.20;;;;;;4964934;28;19921;-67
2023/10/21 13:16:45;;;;;;;;;;;22.80;93.10;;;;;;4962162;28;20540;-68
2023/10/21 13:19:11;;;;;;;;;;;22.70;93.70;;;;;;4966309;28;19914;-67
2023/10/21 13:21:37;;;;;;;;;;;22.70;93.20;;;;;;4961356;28;19921;-68
2023/10/21 13:24:04;;;;;;;;;;;22.90;93.30;;;;;;4966180;28;19910;-68
2023/10/21 13:26:30;;;;;;;;;;;22.90;92.60;;;;;;4969443;28;19921;-68
2023/10/21 13:28:56;;;;;;;;;;;22.90;92.40;;;;;;4966078;28;19921;-67
2023/10/21 13:31:22;;;;;;;;;;;22.70;93.40;;;;;;4960922;28;20489;-66
2023/10/21 13:33:48;;;;;;;;;;;22.70;94.00;;;;;;4972283;28;19909;-65
2023/10/21 13:36:13;;;;;;;;;;;22.60;94.40;;;;;;4968065;28;19929;-66
2023/10/21 13:38:39;;;;;;;;;;;22.50;95.10;;;;;;4963466;28;19961;-69
2023/10/21 13:41:05;;;;;;;;;;;22.30;95.10;;;;;;4965380;28;19917;-68
2023/10/21 13:43:30;;;;;;;;;;;22.30;95.40;;;;;;4963327;28;20001;-68
2023/10/21 13:45:56;;;;;;;;;;;22.10;96.00;;;;;;4965976;28;19966;-68
2023/10/21 13:48:21;;;;;;;;;;;22.00;96.80;;;;;;4962870;28;19930;-61
2023/10/21 13:50:50;;;;;;;;;;;22.00;97.60;;;;;;4965110;28;19965;-69
2023/10/21 13:53:17;;;;;;;;;;;22.00;97.90;;;;;;4961898;28;20368;-69
2023/10/21 13:55:45;;;;;;;;;;;21.90;98.50;;;;;;4965347;28;19964;-69
2023/10/21 13:58:11;;;;;;;;;;;21.80;99.30;;;;;;4960566;28;19961;-70
2023/10/21 14:00:37;;;;;;;;;;;21.90;99.80;;;;;;4964174;28;20038;-70
2023/10/21 14:03:10;;;;;;;;;;;21.80;99.90;;;;;;4969150;28;19933;-69
2023/10/21 14:05:37;;;;;;;;;;;21.80;99.90;;;;;;4967381;28;19960;-69
2023/10/21 14:08:05;;;;;;;;;;;21.70;99.90;;;;;;4961125;28;19933;-68
2023/10/21 14:10:36;;;;;;;;;;;21.70;99.90;;;;;;4970300;28;19925;-69
2023/10/21 14:13:03;;;;;;;;;;;21.70;99.90;;;;;;4966663;28;20118;-69
2023/10/21 14:15:28;;;;;;;;;;;21.70;99.90;;;;;;4963886;28;20392;-69
2023/10/21 14:17:54;;;;;;;;;;;21.80;99.90;;;;;;4972134;28;19914;-69
2023/10/21 14:20:19;;;;;;;;;;;21.80;99.90;;;;;;4961443;28;20361;-69
2023/10/21 14:22:45;;;;;;;;;;;21.80;99.90;;;;;;4963873;28;19932;-70
2023/10/21 14:25:10;;;;;;;;;;;21.80;99.90;;;;;;4966925;28;19916;-66
2023/10/21 14:27:37;;;;;;;;;;;21.70;99.90;;;;;;4961536;28;19958;-67
2023/10/21 14:30:08;;;;;;;;;;;21.70;99.90;;;;;;4962126;28;19921;-66
2023/10/21 14:32:34;;;;;;;;;;;21.70;99.90;;;;;;4967713;28;19918;-66
2023/10/21 14:35:00;;;;;;;;;;;21.70;99.90;;;;;;4965547;28;20378;-64
2023/10/21 14:37:26;;;;;;;;;;;21.70;99.90;;;;;;4960055;28;19998;-65
2023/10/21 14:39:52;;;;;;;;;;;21.60;99.90;;;;;;4959485;28;19918;-65
2023/10/21 14:42:17;;;;;;;;;;;21.60;99.90;;;;;;4963777;28;19917;-65
2023/10/21 14:44:45;;;;;;;;;;;21.60;99.90;;;;;;4963615;28;19965;-66
2023/10/21 14:47:11;;;;;;;;;;;21.60;99.90;;;;;;4961544;28;19940;-66